createdAt,value
2018-03-03T00:00:02.292Z,72.45
2018-03-03T00:02:28.546Z,73.22
2018-03-03T00:04:54.938Z,72.41
2018-03-03T00:07:21.409Z,73.45
2018-03-03T00:09:47.922Z,72.66
2018-03-03T00:12:14.339Z,71.57
2018-03-03T00:14:40.674Z,70.95
2018-03-03T00:17:07.186Z,71.12
2018-03-03T00:19:33.584Z,71.44
2018-03-03T00:21:59.988Z,72.68
2018-03-03T00:24:26.381Z,72.77
2018-03-03T00:26:52.797Z,71.58
2018-03-03T00:29:19.150Z,71.77
2018-03-03T00:31:45.530Z,71.94
2018-03-03T00:34:11.906Z,71.38
2018-03-03T00:36:38.266Z,71.30
2018-03-03T00:39:04.656Z,71.68
2018-03-03T00:41:31.057Z,71.50
2018-03-03T00:43:57.416Z,71.07
2018-03-03T00:46:23.804Z,71.44
2018-03-03T00:48:50.169Z,71.24
2018-03-03T00:51:16.553Z,70.79
2018-03-03T00:53:42.924Z,71.00
2018-03-03T00:56:09.325Z,71.09
2018-03-03T00:58:35.695Z,71.11
2018-03-03T01:01:02.118Z,71.77
2018-03-03T01:03:28.510Z,72.67
2018-03-03T01:05:54.910Z,71.60
2018-03-03T01:08:21.359Z,71.79
2018-03-03T01:10:54.646Z,72.99
2018-03-03T01:13:21.018Z,72.26
2018-03-03T01:15:47.642Z,72.19
2018-03-03T01:18:14.052Z,71.50
2018-03-03T01:20:40.412Z,72.06
2018-03-03T01:23:06.788Z,73.02
2018-03-03T01:25:33.133Z,71.78
2018-03-03T01:27:59.568Z,72.33
2018-03-03T01:30:25.905Z,72.68
2018-03-03T01:32:52.306Z,72.43
2018-03-03T01:35:18.661Z,72.58
2018-03-03T01:37:45.002Z,72.80
2018-03-03T01:40:11.345Z,72.53
2018-03-03T01:42:37.718Z,72.34
2018-03-03T01:45:04.061Z,72.82
2018-03-03T01:47:30.407Z,72.70
2018-03-03T01:49:56.737Z,72.40
2018-03-03T01:52:23.079Z,72.75
2018-03-03T01:54:49.423Z,72.91
2018-03-03T01:57:15.772Z,73.30
2018-03-03T01:59:42.181Z,74.24
2018-03-03T02:02:08.546Z,72.80
2018-03-03T02:04:34.916Z,72.41
2018-03-03T02:07:01.443Z,72.64
2018-03-03T02:09:27.789Z,72.56
2018-03-03T02:11:54.153Z,72.42
2018-03-03T02:14:20.501Z,72.49
2018-03-03T02:16:46.878Z,71.42
2018-03-03T02:19:13.376Z,71.80
2018-03-03T02:21:39.718Z,72.11
2018-03-03T02:24:06.079Z,71.71
2018-03-03T02:26:32.493Z,71.87
2018-03-03T02:28:58.838Z,71.75
2018-03-03T02:31:25.206Z,71.61
2018-03-03T02:33:51.590Z,72.83
2018-03-03T02:36:17.962Z,70.60
2018-03-03T02:38:44.326Z,70.45
2018-03-03T02:41:10.705Z,71.13
2018-03-03T02:43:37.082Z,71.15
2018-03-03T02:46:03.426Z,69.35
2018-03-03T02:48:29.951Z,69.90
2018-03-03T02:50:56.350Z,71.09
2018-03-03T02:53:22.718Z,68.24
2018-03-03T02:55:49.092Z,68.16
2018-03-03T02:58:15.485Z,70.27
2018-03-03T03:00:41.853Z,68.68
2018-03-03T03:03:08.243Z,68.29
2018-03-03T03:05:34.654Z,68.46
2018-03-03T03:08:01.017Z,67.61
2018-03-03T03:10:27.365Z,67.66
2018-03-03T03:12:53.794Z,67.25
2018-03-03T03:15:20.169Z,70.18
2018-03-03T03:17:46.522Z,70.07
2018-03-03T03:20:12.913Z,69.70
2018-03-03T03:22:39.286Z,68.89
2018-03-03T03:25:05.683Z,68.83
2018-03-03T03:27:32.090Z,69.30
2018-03-03T03:29:58.464Z,68.57
2018-03-03T03:32:24.825Z,70.31
2018-03-03T03:34:51.286Z,70.28
2018-03-03T03:37:17.686Z,69.57
2018-03-03T03:39:44.096Z,72.17
2018-03-03T03:42:10.482Z,73.03
2018-03-03T03:44:36.883Z,71.20
2018-03-03T03:47:03.270Z,72.64
2018-03-03T03:49:29.626Z,71.56
2018-03-03T03:51:55.998Z,71.99
2018-03-03T03:54:22.361Z,72.74
2018-03-03T03:56:48.735Z,75.21
2018-03-03T03:59:15.082Z,74.13
2018-03-03T04:01:41.418Z,75.08
2018-03-03T04:04:07.817Z,76.73
2018-03-03T04:06:34.178Z,75.87
2018-03-03T04:09:00.556Z,76.99
2018-03-03T04:11:27.079Z,76.55
2018-03-03T04:13:53.469Z,76.36
2018-03-03T04:16:19.833Z,78.86
2018-03-03T04:18:46.242Z,78.74
2018-03-03T04:21:12.639Z,78.43
2018-03-03T04:23:39.129Z,77.97
2018-03-03T04:26:05.581Z,78.00
2018-03-03T04:28:32.041Z,79.40
2018-03-03T04:30:58.530Z,78.92
2018-03-03T04:33:24.989Z,79.20
2018-03-03T04:35:51.422Z,80.04
2018-03-03T04:38:17.859Z,80.38
2018-03-03T04:40:44.261Z,80.67
2018-03-03T04:43:10.677Z,80.08
2018-03-03T04:45:37.050Z,79.78
2018-03-03T04:48:03.489Z,79.86
2018-03-03T04:50:29.978Z,79.65
2018-03-03T04:52:56.654Z,80.12
2018-03-03T04:55:23.107Z,79.67
2018-03-03T04:57:49.586Z,80.11
2018-03-03T05:00:19.997Z,80.42
2018-03-03T05:16:17.542Z,79.75
2018-03-03T05:18:49.817Z,79.61
2018-03-03T05:21:34.133Z,79.67
2018-03-03T05:24:07.417Z,79.80
2018-03-03T05:26:53.585Z,79.62
2018-03-03T05:29:25.995Z,78.86
2018-03-03T05:31:58.509Z,79.12
2018-03-03T05:34:30.797Z,79.79
2018-03-03T05:37:03.154Z,79.23
2018-03-03T05:39:49.273Z,78.75
2018-03-03T05:55:44.247Z,78.91
2018-03-03T05:58:27.331Z,79.42
2018-03-03T06:01:09.574Z,79.60
2018-03-03T06:03:41.847Z,79.79
2018-03-03T06:06:23.873Z,78.06
2018-03-03T06:08:51.138Z,78.99
2018-03-03T06:11:17.549Z,79.62
2018-03-03T06:13:43.962Z,77.61
2018-03-03T06:16:10.298Z,78.52
2018-03-03T06:18:37.366Z,79.78
2018-03-03T06:21:03.755Z,79.62
2018-03-03T06:23:30.091Z,79.09
2018-03-03T06:25:56.443Z,78.13
2018-03-03T06:28:22.826Z,78.83
2018-03-03T06:30:49.163Z,79.34
2018-03-03T06:33:15.557Z,79.57
2018-03-03T06:35:41.930Z,77.34
2018-03-03T06:38:08.278Z,77.48
2018-03-03T06:40:34.679Z,76.06
2018-03-03T06:43:01.024Z,75.06
2018-03-03T06:45:27.376Z,75.49
2018-03-03T06:47:53.727Z,75.70
2018-03-03T06:50:20.103Z,75.50
2018-03-03T06:52:46.558Z,77.78
2018-03-03T06:55:12.921Z,78.76
2018-03-03T06:57:39.295Z,78.99
2018-03-03T07:00:05.659Z,78.53
2018-03-03T07:02:32.005Z,77.22
2018-03-03T07:04:58.338Z,78.17
2018-03-03T07:07:24.717Z,77.27
2018-03-03T07:09:51.070Z,77.42
2018-03-03T07:12:17.480Z,78.38
2018-03-03T07:14:48.697Z,78.95
2018-03-03T07:17:15.035Z,78.80
2018-03-03T07:19:41.422Z,78.41
2018-03-03T07:22:07.950Z,77.29
2018-03-03T07:24:34.310Z,76.00
2018-03-03T07:27:00.693Z,74.86
2018-03-03T07:29:27.048Z,76.26
2018-03-03T07:31:53.440Z,77.31
2018-03-03T07:34:19.847Z,75.17
2018-03-03T07:36:46.277Z,76.15
2018-03-03T07:39:12.647Z,74.58
2018-03-03T07:41:39.038Z,75.32
2018-03-03T07:44:05.390Z,75.57
2018-03-03T07:46:31.798Z,76.46
2018-03-03T07:48:58.198Z,77.01
2018-03-03T07:51:24.586Z,76.42
2018-03-03T07:53:50.937Z,76.74
2018-03-03T07:56:17.301Z,75.91
2018-03-03T07:58:47.739Z,75.64
2018-03-03T08:01:14.154Z,75.95
2018-03-03T08:03:40.618Z,74.40
2018-03-03T08:06:07.085Z,73.14
2018-03-03T08:08:33.481Z,71.15
2018-03-03T08:10:59.919Z,73.76
2018-03-03T08:13:26.273Z,71.77
2018-03-03T08:15:52.682Z,71.00
2018-03-03T08:18:19.037Z,74.56
2018-03-03T08:20:45.400Z,74.16
2018-03-03T08:23:11.801Z,75.13
2018-03-03T08:25:38.219Z,71.68
2018-03-03T08:28:04.642Z,72.21
2018-03-03T08:30:31.030Z,71.25
2018-03-03T08:32:57.426Z,71.44
2018-03-03T08:35:23.818Z,72.74
2018-03-03T08:37:50.241Z,69.74
2018-03-03T08:40:16.612Z,72.12
2018-03-03T08:42:43.021Z,70.37
2018-03-03T08:45:09.418Z,71.57
2018-03-03T08:47:35.789Z,73.31
2018-03-03T08:50:02.242Z,71.22
2018-03-03T08:52:28.676Z,71.31
2018-03-03T08:54:55.107Z,70.62
2018-03-03T08:57:21.482Z,72.07
2018-03-03T08:59:47.978Z,69.94
2018-03-03T09:02:14.372Z,71.08
2018-03-03T09:04:40.785Z,68.06
2018-03-03T09:07:07.198Z,69.25
2018-03-03T09:09:33.565Z,70.95
2018-03-03T09:12:00.052Z,66.52
2018-03-03T09:14:26.456Z,66.48
2018-03-03T09:16:52.947Z,66.94
2018-03-03T09:19:19.381Z,70.62
2018-03-03T09:21:45.761Z,66.92
2018-03-03T09:24:12.156Z,69.06
2018-03-03T09:26:38.535Z,65.96
2018-03-03T09:29:04.974Z,68.08
2018-03-03T09:31:31.429Z,68.06
2018-03-03T09:33:57.837Z,68.73
2018-03-03T09:36:24.271Z,66.16
2018-03-03T09:38:50.717Z,66.29
2018-03-03T09:41:17.075Z,66.30
2018-03-03T09:43:43.466Z,67.00
2018-03-03T09:46:09.936Z,69.33
2018-03-03T09:48:36.438Z,66.31
2018-03-03T09:51:02.890Z,69.04
2018-03-03T09:53:29.397Z,66.28
2018-03-03T09:55:55.832Z,66.58
2018-03-03T09:58:22.161Z,69.95
2018-03-03T10:00:48.581Z,70.95
2018-03-03T10:03:14.983Z,70.38
2018-03-03T10:05:41.313Z,66.45
2018-03-03T10:08:07.647Z,66.97
2018-03-03T10:10:34.191Z,64.35
2018-03-03T10:13:00.599Z,62.82
2018-03-03T10:15:27.002Z,63.05
2018-03-03T10:17:53.385Z,69.53
2018-03-03T10:20:19.801Z,70.02
2018-03-03T10:22:46.191Z,68.00
2018-03-03T10:25:12.574Z,64.14
2018-03-03T10:27:39.020Z,63.70
2018-03-03T10:30:05.365Z,66.94
2018-03-03T10:32:31.831Z,66.44
2018-03-03T10:34:58.247Z,67.63
2018-03-03T10:37:24.630Z,67.02
2018-03-03T10:39:51.054Z,61.57
2018-03-03T10:42:17.500Z,65.47
2018-03-03T10:44:43.887Z,66.38
2018-03-03T10:47:10.281Z,60.20
2018-03-03T10:49:36.675Z,60.65
2018-03-03T10:52:03.209Z,63.64
2018-03-03T10:54:29.628Z,65.77
2018-03-03T10:56:56.012Z,61.29
2018-03-03T10:59:22.381Z,65.56
2018-03-03T11:01:48.730Z,61.72
2018-03-03T11:04:15.150Z,59.42
2018-03-03T11:06:41.545Z,64.75
2018-03-03T11:09:07.986Z,64.79
2018-03-03T11:11:34.388Z,64.09
2018-03-03T11:14:00.778Z,60.25
2018-03-03T11:16:27.149Z,59.03
2018-03-03T11:18:53.566Z,59.76
2018-03-03T11:21:19.940Z,60.12
2018-03-03T11:23:46.297Z,59.64
2018-03-03T11:26:12.746Z,58.18
2018-03-03T11:28:39.162Z,59.14
2018-03-03T11:31:05.626Z,61.52
2018-03-03T11:33:32.010Z,62.17
2018-03-03T11:35:58.355Z,60.25
2018-03-03T11:38:24.818Z,60.76
2018-03-03T11:40:51.232Z,60.95
2018-03-03T11:43:17.637Z,62.35
2018-03-03T11:45:43.998Z,62.43
2018-03-03T11:48:10.434Z,61.91
2018-03-03T11:50:36.833Z,58.51
2018-03-03T11:53:03.286Z,58.36
2018-03-03T11:55:29.644Z,61.71
2018-03-03T11:57:56.062Z,59.53
2018-03-03T12:00:22.486Z,62.53
2018-03-03T12:02:48.969Z,58.67
2018-03-03T12:05:15.392Z,57.85
2018-03-03T12:07:41.802Z,59.77
2018-03-03T12:10:08.202Z,57.83
2018-03-03T12:12:34.604Z,58.77
2018-03-03T12:15:01.026Z,58.18
2018-03-03T12:17:27.420Z,57.21
2018-03-03T12:19:53.779Z,56.29
2018-03-03T12:22:20.148Z,57.65
2018-03-03T12:24:46.517Z,55.81
2018-03-03T12:27:12.994Z,56.03
2018-03-03T12:29:39.391Z,56.14
2018-03-03T12:32:05.785Z,56.19
2018-03-03T12:34:32.166Z,55.96
2018-03-03T12:36:58.569Z,58.11
2018-03-03T12:39:25.006Z,58.64
2018-03-03T12:41:51.406Z,57.34
2018-03-03T12:44:17.739Z,58.67
2018-03-03T12:46:44.108Z,56.92
2018-03-03T12:49:10.550Z,57.20
2018-03-03T12:51:36.955Z,56.37
2018-03-03T12:54:03.313Z,56.99
2018-03-03T12:56:29.692Z,55.18
2018-03-03T12:58:56.134Z,55.17
2018-03-03T13:01:22.555Z,57.21
2018-03-03T13:03:48.914Z,57.66
2018-03-03T13:06:15.315Z,58.76
2018-03-03T13:08:41.716Z,59.12
2018-03-03T13:11:08.227Z,59.74
2018-03-03T13:13:34.597Z,57.56
2018-03-03T13:16:07.918Z,56.95
2018-03-03T13:18:34.344Z,57.80
2018-03-03T13:21:00.758Z,56.78
2018-03-03T13:23:27.174Z,56.37
2018-03-03T13:25:53.515Z,56.29
2018-03-03T13:28:19.938Z,57.02
2018-03-03T13:30:46.282Z,57.18
2018-03-03T13:33:12.683Z,58.93
2018-03-03T13:35:39.135Z,58.46
2018-03-03T13:38:05.551Z,58.98
2018-03-03T13:40:31.930Z,58.97
2018-03-03T13:42:58.317Z,56.81
2018-03-03T13:45:24.750Z,58.87
2018-03-03T13:47:51.306Z,59.42
2018-03-03T13:50:17.745Z,58.91
2018-03-03T13:52:44.107Z,59.29
2018-03-03T13:55:10.490Z,61.37
2018-03-03T13:57:36.880Z,59.50
2018-03-03T14:00:03.297Z,60.76
2018-03-03T14:02:29.688Z,60.63
2018-03-03T14:04:56.077Z,60.83
2018-03-03T14:07:22.492Z,62.32
2018-03-03T14:09:48.870Z,62.28
2018-03-03T14:12:15.309Z,62.49
2018-03-03T14:14:41.762Z,62.92
2018-03-03T14:17:08.147Z,61.87
2018-03-03T14:19:34.922Z,62.13
2018-03-03T14:22:01.321Z,62.30
2018-03-03T14:24:27.693Z,62.89
2018-03-03T14:26:54.042Z,63.60
2018-03-03T14:29:20.416Z,64.94
2018-03-03T14:31:46.766Z,64.43
2018-03-03T14:34:13.134Z,62.86
2018-03-03T14:36:39.509Z,65.03
2018-03-03T14:39:05.902Z,63.96
2018-03-03T14:41:32.254Z,63.01
2018-03-03T14:43:58.688Z,62.86
2018-03-03T14:46:25.060Z,65.10
2018-03-03T14:48:51.403Z,65.21
2018-03-03T14:51:17.852Z,64.93
2018-03-03T14:53:44.222Z,63.56
2018-03-03T14:56:10.618Z,64.29
2018-03-03T14:58:36.952Z,66.29
2018-03-03T15:01:03.317Z,66.82
2018-03-03T15:03:29.676Z,65.83
2018-03-03T15:05:56.102Z,65.39
2018-03-03T15:08:22.463Z,65.94
2018-03-03T15:10:48.804Z,65.58
2018-03-03T15:13:15.170Z,68.23
2018-03-03T15:15:41.572Z,67.81
2018-03-03T15:18:07.939Z,66.13
2018-03-03T15:20:34.317Z,66.25
2018-03-03T15:23:00.688Z,67.09
2018-03-03T15:25:27.091Z,68.24
2018-03-03T15:27:53.453Z,67.59
2018-03-03T15:30:19.834Z,68.53
2018-03-03T15:32:46.220Z,67.51
2018-03-03T15:35:12.631Z,67.75
2018-03-03T15:37:39.106Z,69.29
2018-03-03T15:40:05.543Z,68.60
2018-03-03T15:42:32.030Z,68.60
2018-03-03T15:44:58.438Z,70.28
2018-03-03T15:47:24.798Z,68.68
2018-03-03T15:49:51.179Z,68.34
2018-03-03T15:52:17.562Z,68.33
2018-03-03T15:54:43.938Z,69.22
2018-03-03T15:57:10.310Z,71.81
2018-03-03T15:59:36.685Z,72.30
2018-03-03T16:02:03.222Z,73.46
2018-03-03T16:04:29.746Z,71.07
2018-03-03T16:06:56.836Z,70.62
2018-03-03T16:09:23.211Z,71.30
2018-03-03T16:11:49.698Z,70.71
2018-03-03T16:14:16.054Z,69.87
2018-03-03T16:16:42.451Z,72.19
2018-03-03T16:19:08.863Z,71.13
2018-03-03T16:21:35.253Z,73.28
2018-03-03T16:24:01.701Z,73.66
2018-03-03T16:26:28.089Z,74.16
2018-03-03T16:28:54.534Z,73.75
2018-03-03T16:31:20.960Z,73.24
2018-03-03T16:33:47.359Z,72.74
2018-03-03T16:36:13.769Z,72.26
2018-03-03T16:38:40.147Z,70.73
2018-03-03T16:41:06.514Z,70.92
2018-03-03T16:43:32.935Z,72.33
2018-03-03T16:45:59.281Z,72.42
2018-03-03T16:48:25.650Z,71.90
2018-03-03T16:50:52.093Z,72.12
2018-03-03T16:53:18.465Z,72.99
2018-03-03T16:55:44.939Z,72.52
2018-03-03T16:58:11.350Z,71.91
2018-03-03T17:00:37.714Z,72.67
2018-03-03T17:03:04.064Z,72.83
2018-03-03T17:05:30.461Z,72.80
2018-03-03T17:07:56.814Z,71.17
2018-03-03T17:10:23.274Z,72.09
2018-03-03T17:12:49.709Z,72.45
2018-03-03T17:15:18.808Z,73.42
2018-03-03T17:17:46.211Z,73.52
2018-03-03T17:20:12.639Z,73.19
2018-03-03T17:22:39.071Z,72.80
2018-03-03T17:25:05.575Z,72.98
2018-03-03T17:27:31.937Z,72.50
2018-03-03T17:29:58.339Z,72.85
2018-03-03T17:32:24.727Z,72.76
2018-03-03T17:34:51.184Z,72.67
2018-03-03T17:37:17.577Z,72.14
2018-03-03T17:39:43.946Z,72.41
2018-03-03T17:42:10.375Z,71.80
2018-03-03T17:44:36.819Z,72.32
2018-03-03T17:47:03.178Z,72.71
2018-03-03T17:49:29.566Z,72.76
2018-03-03T17:51:55.931Z,73.03
2018-03-03T17:54:22.326Z,72.88
2018-03-03T17:56:48.689Z,72.85
2018-03-03T17:59:15.047Z,72.76
2018-03-03T18:01:41.452Z,71.76
2018-03-03T18:04:07.890Z,72.35
2018-03-03T18:06:34.224Z,72.91
2018-03-03T18:09:00.710Z,73.19
2018-03-03T18:11:27.094Z,72.70
2018-03-03T18:13:54.422Z,72.06
2018-03-03T18:16:20.831Z,72.26
2018-03-03T18:18:47.268Z,72.62
2018-03-03T18:21:13.631Z,72.54
2018-03-03T18:23:40.007Z,73.11
2018-03-03T18:26:06.455Z,73.38
2018-03-03T18:28:32.878Z,72.26
2018-03-03T18:30:59.272Z,72.67
2018-03-03T18:33:25.698Z,73.36
2018-03-03T18:35:52.066Z,73.16
2018-03-03T18:38:18.429Z,72.84
2018-03-03T18:40:44.853Z,73.08
2018-03-03T18:43:11.247Z,73.86
2018-03-03T18:45:37.646Z,73.50
2018-03-03T18:48:04.114Z,73.48
2018-03-03T18:50:30.483Z,73.37
2018-03-03T18:52:56.850Z,73.80
2018-03-03T18:55:23.324Z,74.01
2018-03-03T18:57:49.695Z,74.13
2018-03-03T19:00:16.070Z,74.11
2018-03-03T19:02:42.515Z,73.83
2018-03-03T19:05:08.911Z,74.05
2018-03-03T19:07:35.271Z,74.12
2018-03-03T19:10:01.695Z,74.35
2018-03-03T19:12:28.156Z,74.46
2018-03-03T19:14:54.519Z,74.48
2018-03-03T19:17:20.970Z,74.60
2018-03-03T19:19:47.359Z,74.50
2018-03-03T19:22:13.755Z,74.37
2018-03-03T19:24:40.354Z,74.33
2018-03-03T19:27:06.806Z,74.30
2018-03-03T19:29:33.187Z,74.36
2018-03-03T19:31:59.590Z,74.35
2018-03-03T19:34:25.987Z,74.48
2018-03-03T19:36:52.395Z,74.59
2018-03-03T19:39:18.831Z,74.44
2018-03-03T19:41:45.252Z,74.14
2018-03-03T19:44:11.595Z,74.27
2018-03-03T19:46:37.998Z,74.44
2018-03-03T19:49:04.402Z,74.83
2018-03-03T19:51:30.842Z,74.74
2018-03-03T19:53:57.232Z,74.58
2018-03-03T19:56:23.606Z,74.58
2018-03-03T19:58:50.003Z,74.48
2018-03-03T20:01:16.418Z,74.42
2018-03-03T20:03:42.852Z,74.12
2018-03-03T20:06:09.224Z,73.83
2018-03-03T20:08:35.596Z,74.29
2018-03-03T20:11:02.066Z,74.44
2018-03-03T20:13:28.439Z,74.44
2018-03-03T20:15:54.822Z,74.45
2018-03-03T20:18:21.209Z,74.47
2018-03-03T20:20:47.600Z,74.53
2018-03-03T20:23:13.994Z,74.46
2018-03-03T20:25:40.407Z,74.77
2018-03-03T20:28:06.786Z,74.91
2018-03-03T20:30:33.294Z,74.94
2018-03-03T20:32:59.762Z,74.44
2018-03-03T20:35:26.159Z,74.78
2018-03-03T20:37:52.543Z,74.39
2018-03-03T20:40:18.951Z,74.81
2018-03-03T20:42:45.358Z,75.26
2018-03-03T20:45:11.791Z,75.38
2018-03-03T20:47:38.241Z,75.02
2018-03-03T20:50:04.659Z,74.75
2018-03-03T20:52:31.150Z,75.13
2018-03-03T20:54:57.499Z,74.66
2018-03-03T20:57:23.867Z,75.06
2018-03-03T20:59:50.307Z,75.28
2018-03-03T21:02:16.713Z,74.37
2018-03-03T21:04:43.122Z,74.63
2018-03-03T21:07:09.498Z,75.50
2018-03-03T21:09:35.880Z,74.99
2018-03-03T21:12:03.373Z,75.61
2018-03-03T21:14:29.767Z,75.34
2018-03-03T21:16:56.174Z,76.11
2018-03-03T21:19:22.691Z,77.04
2018-03-03T21:21:49.166Z,75.67
2018-03-03T21:24:15.529Z,77.94
2018-03-03T21:26:41.906Z,77.76
2018-03-03T21:29:08.323Z,76.38
2018-03-03T21:31:34.758Z,76.19
2018-03-03T21:34:01.147Z,76.33
2018-03-03T21:36:27.563Z,77.66
2018-03-03T21:38:53.950Z,76.98
2018-03-03T21:41:20.387Z,75.07
2018-03-03T21:43:46.817Z,75.51
2018-03-03T21:46:13.174Z,75.42
2018-03-03T21:48:39.606Z,75.38
2018-03-03T21:51:06.023Z,75.73
2018-03-03T21:53:32.500Z,76.39
2018-03-03T21:55:58.883Z,75.91
2018-03-03T21:58:25.314Z,76.32
2018-03-03T22:00:51.717Z,78.04
2018-03-03T22:03:18.146Z,75.64
2018-03-03T22:05:44.609Z,74.72
2018-03-03T22:08:11.108Z,76.62
2018-03-03T22:10:37.445Z,78.09
2018-03-03T22:13:03.895Z,76.71
2018-03-03T22:15:30.394Z,76.69
2018-03-03T22:17:56.779Z,74.71
2018-03-03T22:20:23.210Z,75.35
2018-03-03T22:22:49.605Z,77.99
2018-03-03T22:25:15.963Z,77.08
2018-03-03T22:27:42.374Z,76.88
2018-03-03T22:30:08.737Z,76.33
2018-03-03T22:32:35.144Z,77.88
2018-03-03T22:35:01.626Z,76.61
2018-03-03T22:37:28.144Z,76.99
2018-03-03T22:39:54.564Z,77.39
2018-03-03T22:42:21.074Z,75.86
2018-03-03T22:44:47.422Z,77.50
2018-03-03T22:47:13.859Z,76.47
2018-03-03T22:49:40.262Z,76.66
2018-03-03T22:52:06.684Z,75.84
2018-03-03T22:54:33.098Z,76.25
2018-03-03T22:56:59.526Z,77.07
2018-03-03T22:59:25.981Z,76.48
2018-03-03T23:01:52.426Z,75.11
2018-03-03T23:04:18.931Z,74.53
2018-03-03T23:06:45.345Z,75.08
2018-03-03T23:09:11.799Z,76.72
2018-03-03T23:11:38.240Z,77.08
2018-03-03T23:14:04.637Z,75.25
2018-03-03T23:16:31.002Z,75.80
2018-03-03T23:18:57.389Z,77.13
2018-03-03T23:21:23.912Z,78.23
2018-03-03T23:23:50.465Z,78.38
2018-03-03T23:26:16.878Z,78.06
2018-03-03T23:28:43.305Z,78.15
2018-03-03T23:31:09.782Z,78.00
2018-03-03T23:33:36.151Z,77.86
2018-03-03T23:36:02.494Z,77.76
2018-03-03T23:38:28.862Z,78.10
2018-03-03T23:40:55.273Z,78.20
2018-03-03T23:43:21.757Z,78.18
2018-03-03T23:45:48.158Z,78.19
2018-03-03T23:48:14.598Z,78.37
2018-03-03T23:50:41.058Z,78.22
2018-03-03T23:53:07.490Z,78.27
2018-03-03T23:55:33.877Z,78.18
2018-03-03T23:58:00.231Z,77.85
